sensor_id;sensor_type;location;lat;lon;timestamp;P1;durP1;ratioP1;P2;durP2;ratioP2
31402;SDS011;18039;52.188;21.024;2022-08-14T00:01:57;12.57;;;8.02;;
31402;SDS011;18039;52.188;21.024;2022-08-14T00:07:08;11.23;;;8.02;;
31402;SDS011;18039;52.188;21.024;2022-08-14T00:09:40;13.20;;;8.25;;
31402;SDS011;18039;52.188;21.024;2022-08-14T00:12:30;14.65;;;7.75;;
31402;SDS011;18039;52.188;21.024;2022-08-14T00:15:07;11.80;;;8.25;;
31402;SDS011;18039;52.188;21.024;2022-08-14T00:17:41;13.48;;;8.00;;
31402;SDS011;18039;52.188;21.024;2022-08-14T00:20:21;14.73;;;8.73;;
31402;SDS011;18039;52.188;21.024;2022-08-14T00:22:57;10.82;;;8.07;;
31402;SDS011;18039;52.188;21.024;2022-08-14T00:28:09;11.75;;;8.32;;
31402;SDS011;18039;52.188;21.024;2022-08-14T00:30:43;14.10;;;7.90;;
31402;SDS011;18039;52.188;21.024;2022-08-14T00:33:12;11.63;;;7.72;;
31402;SDS011;18039;52.188;21.024;2022-08-14T00:35:41;12.63;;;8.82;;
31402;SDS011;18039;52.188;21.024;2022-08-14T00:38:28;12.40;;;8.13;;
31402;SDS011;18039;52.188;21.024;2022-08-14T00:40:57;12.93;;;8.25;;
31402;SDS011;18039;52.188;21.024;2022-08-14T00:43:24;11.50;;;8.18;;
31402;SDS011;18039;52.188;21.024;2022-08-14T00:46:05;10.15;;;7.95;;
31402;SDS011;18039;52.188;21.024;2022-08-14T00:48:53;11.65;;;8.48;;
31402;SDS011;18039;52.188;21.024;2022-08-14T00:51:23;15.18;;;8.85;;
31402;SDS011;18039;52.188;21.024;2022-08-14T00:54:04;12.32;;;8.25;;
31402;SDS011;18039;52.188;21.024;2022-08-14T00:56:51;16.98;;;8.18;;
31402;SDS011;18039;52.188;21.024;2022-08-14T00:59:24;10.82;;;8.27;;
31402;SDS011;18039;52.188;21.024;2022-08-14T01:01:57;11.15;;;8.52;;
31402;SDS011;18039;52.188;21.024;2022-08-14T01:04:26;11.95;;;7.65;;
31402;SDS011;18039;52.188;21.024;2022-08-14T01:07:14;15.13;;;8.68;;
31402;SDS011;18039;52.188;21.024;2022-08-14T01:09:55;14.75;;;8.23;;
31402;SDS011;18039;52.188;21.024;2022-08-14T01:12:30;11.85;;;8.23;;
31402;SDS011;18039;52.188;21.024;2022-08-14T01:15:06;13.27;;;8.82;;
31402;SDS011;18039;52.188;21.024;2022-08-14T01:17:35;13.45;;;8.73;;
31402;SDS011;18039;52.188;21.024;2022-08-14T01:20:21;21.80;;;8.68;;
31402;SDS011;18039;52.188;21.024;2022-08-14T01:23:08;11.40;;;8.43;;
31402;SDS011;18039;52.188;21.024;2022-08-14T01:25:42;12.00;;;8.18;;
31402;SDS011;18039;52.188;21.024;2022-08-14T01:28:12;13.80;;;8.38;;
31402;SDS011;18039;52.188;21.024;2022-08-14T01:30:59;14.05;;;8.75;;
31402;SDS011;18039;52.188;21.024;2022-08-14T01:33:28;12.80;;;8.00;;
31402;SDS011;18039;52.188;21.024;2022-08-14T01:36:16;13.85;;;8.00;;
31402;SDS011;18039;52.188;21.024;2022-08-14T01:38:49;13.52;;;9.05;;
31402;SDS011;18039;52.188;21.024;2022-08-14T01:41:20;11.88;;;7.88;;
31402;SDS011;18039;52.188;21.024;2022-08-14T01:43:58;10.23;;;7.72;;
31402;SDS011;18039;52.188;21.024;2022-08-14T01:46:28;12.00;;;7.70;;
31402;SDS011;18039;52.188;21.024;2022-08-14T01:49:04;11.23;;;8.40;;
31402;SDS011;18039;52.188;21.024;2022-08-14T01:51:33;11.43;;;8.02;;
31402;SDS011;18039;52.188;21.024;2022-08-14T01:54:08;13.68;;;7.90;;
31402;SDS011;18039;52.188;21.024;2022-08-14T01:56:40;9.43;;;7.65;;
31402;SDS011;18039;52.188;21.024;2022-08-14T02:01:45;12.00;;;7.82;;
31402;SDS011;18039;52.188;21.024;2022-08-14T02:04:25;15.95;;;7.63;;
31402;SDS011;18039;52.188;21.024;2022-08-14T02:07:16;11.57;;;7.38;;
31402;SDS011;18039;52.188;21.024;2022-08-14T02:10:04;11.73;;;7.47;;
31402;SDS011;18039;52.188;21.024;2022-08-14T02:12:32;8.75;;;6.78;;
31402;SDS011;18039;52.188;21.024;2022-08-14T02:15:00;13.50;;;6.72;;
31402;SDS011;18039;52.188;21.024;2022-08-14T02:17:28;10.80;;;7.28;;
31402;SDS011;18039;52.188;21.024;2022-08-14T02:19:56;10.50;;;6.63;;
31402;SDS011;18039;52.188;21.024;2022-08-14T02:22:24;9.85;;;7.00;;
31402;SDS011;18039;52.188;21.024;2022-08-14T02:24:58;9.15;;;6.63;;
31402;SDS011;18039;52.188;21.024;2022-08-14T02:27:26;10.15;;;7.15;;
31402;SDS011;18039;52.188;21.024;2022-08-14T02:30:14;12.23;;;6.43;;
31402;SDS011;18039;52.188;21.024;2022-08-14T02:32:42;10.65;;;6.53;;
31402;SDS011;18039;52.188;21.024;2022-08-14T02:35:10;11.50;;;7.10;;
31402;SDS011;18039;52.188;21.024;2022-08-14T02:37:47;8.50;;;6.72;;
31402;SDS011;18039;52.188;21.024;2022-08-14T02:40:16;10.85;;;7.60;;
31402;SDS011;18039;52.188;21.024;2022-08-14T02:42:45;11.05;;;7.28;;
31402;SDS011;18039;52.188;21.024;2022-08-14T02:45:24;11.40;;;7.43;;
31402;SDS011;18039;52.188;21.024;2022-08-14T02:48:11;14.50;;;6.75;;
31402;SDS011;18039;52.188;21.024;2022-08-14T02:51:10;12.82;;;6.95;;
31402;SDS011;18039;52.188;21.024;2022-08-14T02:53:41;10.80;;;7.47;;
31402;SDS011;18039;52.188;21.024;2022-08-14T02:56:10;15.13;;;7.47;;
31402;SDS011;18039;52.188;21.024;2022-08-14T02:59:01;13.35;;;7.35;;
31402;SDS011;18039;52.188;21.024;2022-08-14T03:01:31;10.93;;;6.68;;
31402;SDS011;18039;52.188;21.024;2022-08-14T03:04:16;11.25;;;7.18;;
31402;SDS011;18039;52.188;21.024;2022-08-14T03:06:46;9.38;;;6.78;;
31402;SDS011;18039;52.188;21.024;2022-08-14T03:09:37;12.20;;;7.10;;
31402;SDS011;18039;52.188;21.024;2022-08-14T03:12:25;12.35;;;6.63;;
31402;SDS011;18039;52.188;21.024;2022-08-14T03:14:59;10.02;;;6.68;;
31402;SDS011;18039;52.188;21.024;2022-08-14T03:17:40;10.43;;;7.30;;
31402;SDS011;18039;52.188;21.024;2022-08-14T03:20:27;13.85;;;7.03;;
31402;SDS011;18039;52.188;21.024;2022-08-14T03:22:56;10.93;;;7.53;;
31402;SDS011;18039;52.188;21.024;2022-08-14T03:25:26;11.43;;;7.63;;
31402;SDS011;18039;52.188;21.024;2022-08-14T03:27:56;11.30;;;7.15;;
31402;SDS011;18039;52.188;21.024;2022-08-14T03:30:29;11.55;;;7.90;;
31402;SDS011;18039;52.188;21.024;2022-08-14T03:33:11;11.20;;;6.95;;
31402;SDS011;18039;52.188;21.024;2022-08-14T03:35:40;15.23;;;7.63;;
31402;SDS011;18039;52.188;21.024;2022-08-14T03:38:27;15.90;;;7.68;;
31402;SDS011;18039;52.188;21.024;2022-08-14T03:41:17;11.50;;;7.40;;
31402;SDS011;18039;52.188;21.024;2022-08-14T03:43:50;11.95;;;7.30;;
31402;SDS011;18039;52.188;21.024;2022-08-14T03:46:27;13.52;;;7.53;;
31402;SDS011;18039;52.188;21.024;2022-08-14T03:49:04;9.52;;;7.20;;
31402;SDS011;18039;52.188;21.024;2022-08-14T03:51:38;11.80;;;7.85;;
31402;SDS011;18039;52.188;21.024;2022-08-14T03:54:06;13.10;;;7.50;;
31402;SDS011;18039;52.188;21.024;2022-08-14T03:56:46;11.77;;;7.80;;
31402;SDS011;18039;52.188;21.024;2022-08-14T03:59:15;10.85;;;7.65;;
31402;SDS011;18039;52.188;21.024;2022-08-14T04:01:43;12.48;;;7.25;;
31402;SDS011;18039;52.188;21.024;2022-08-14T04:04:28;8.80;;;6.72;;
31402;SDS011;18039;52.188;21.024;2022-08-14T04:06:57;11.75;;;7.65;;
31402;SDS011;18039;52.188;21.024;2022-08-14T04:09:25;10.43;;;7.85;;
31402;SDS011;18039;52.188;21.024;2022-08-14T04:11:53;12.48;;;7.75;;
31402;SDS011;18039;52.188;21.024;2022-08-14T04:14:23;12.60;;;7.20;;
31402;SDS011;18039;52.188;21.024;2022-08-14T04:16:50;11.63;;;8.23;;
31402;SDS011;18039;52.188;21.024;2022-08-14T04:19:17;16.05;;;7.78;;
31402;SDS011;18039;52.188;21.024;2022-08-14T04:21:49;11.98;;;7.15;;
31402;SDS011;18039;52.188;21.024;2022-08-14T04:24:32;9.98;;;7.05;;
31402;SDS011;18039;52.188;21.024;2022-08-14T04:27:08;11.43;;;7.57;;
31402;SDS011;18039;52.188;21.024;2022-08-14T04:29:41;13.75;;;7.82;;
31402;SDS011;18039;52.188;21.024;2022-08-14T04:32:11;9.32;;;7.28;;
31402;SDS011;18039;52.188;21.024;2022-08-14T04:34:59;11.05;;;7.70;;
31402;SDS011;18039;52.188;21.024;2022-08-14T04:37:33;11.93;;;7.95;;
31402;SDS011;18039;52.188;21.024;2022-08-14T04:40:19;12.45;;;7.93;;
31402;SDS011;18039;52.188;21.024;2022-08-14T04:43:06;11.73;;;7.65;;
31402;SDS011;18039;52.188;21.024;2022-08-14T04:48:32;11.75;;;8.07;;
31402;SDS011;18039;52.188;21.024;2022-08-14T04:51:18;10.90;;;7.45;;
31402;SDS011;18039;52.188;21.024;2022-08-14T04:53:49;13.02;;;8.63;;
31402;SDS011;18039;52.188;21.024;2022-08-14T04:56:19;11.02;;;7.93;;
31402;SDS011;18039;52.188;21.024;2022-08-14T04:59:04;10.95;;;7.43;;
31402;SDS011;18039;52.188;21.024;2022-08-14T05:01:40;15.98;;;8.10;;
31402;SDS011;18039;52.188;21.024;2022-08-14T05:04:18;12.35;;;8.20;;
31402;SDS011;18039;52.188;21.024;2022-08-14T05:06:50;12.27;;;7.68;;
31402;SDS011;18039;52.188;21.024;2022-08-14T05:09:21;11.48;;;7.72;;
31402;SDS011;18039;52.188;21.024;2022-08-14T05:11:54;11.40;;;7.57;;
31402;SDS011;18039;52.188;21.024;2022-08-14T05:14:41;12.07;;;8.23;;
31402;SDS011;18039;52.188;21.024;2022-08-14T05:17:21;12.98;;;8.73;;
31402;SDS011;18039;52.188;21.024;2022-08-14T05:20:10;13.82;;;9.02;;
31402;SDS011;18039;52.188;21.024;2022-08-14T05:22:58;12.68;;;8.63;;
31402;SDS011;18039;52.188;21.024;2022-08-14T05:25:26;13.90;;;8.88;;
31402;SDS011;18039;52.188;21.024;2022-08-14T05:28:12;12.32;;;8.43;;
31402;SDS011;18039;52.188;21.024;2022-08-14T05:30:53;12.90;;;8.65;;
31402;SDS011;18039;52.188;21.024;2022-08-14T05:33:22;15.82;;;8.23;;
31402;SDS011;18039;52.188;21.024;2022-08-14T05:35:51;13.93;;;8.73;;
31402;SDS011;18039;52.188;21.024;2022-08-14T05:38:20;15.95;;;9.40;;
31402;SDS011;18039;52.188;21.024;2022-08-14T05:41:08;12.48;;;8.82;;
31402;SDS011;18039;52.188;21.024;2022-08-14T05:43:43;17.23;;;9.73;;
31402;SDS011;18039;52.188;21.024;2022-08-14T05:46:14;15.93;;;9.48;;
31402;SDS011;18039;52.188;21.024;2022-08-14T05:48:49;13.20;;;9.40;;
31402;SDS011;18039;52.188;21.024;2022-08-14T05:51:23;17.73;;;9.20;;
31402;SDS011;18039;52.188;21.024;2022-08-14T05:53:51;14.07;;;9.70;;
31402;SDS011;18039;52.188;21.024;2022-08-14T05:56:38;14.88;;;10.23;;
31402;SDS011;18039;52.188;21.024;2022-08-14T05:59:05;16.40;;;10.20;;
31402;SDS011;18039;52.188;21.024;2022-08-14T06:01:33;14.05;;;9.88;;
31402;SDS011;18039;52.188;21.024;2022-08-14T06:04:01;15.15;;;10.32;;
31402;SDS011;18039;52.188;21.024;2022-08-14T06:06:30;14.93;;;11.23;;
31402;SDS011;18039;52.188;21.024;2022-08-14T06:09:04;16.80;;;10.88;;
31402;SDS011;18039;52.188;21.024;2022-08-14T06:11:35;18.70;;;12.05;;
31402;SDS011;18039;52.188;21.024;2022-08-14T06:14:03;17.63;;;12.10;;
31402;SDS011;18039;52.188;21.024;2022-08-14T06:16:38;19.23;;;12.05;;
31402;SDS011;18039;52.188;21.024;2022-08-14T06:19:06;18.13;;;11.98;;
31402;SDS011;18039;52.188;21.024;2022-08-14T06:21:37;19.33;;;11.80;;
31402;SDS011;18039;52.188;21.024;2022-08-14T06:24:07;18.08;;;10.93;;
31402;SDS011;18039;52.188;21.024;2022-08-14T06:26:43;17.08;;;11.35;;
31402;SDS011;18039;52.188;21.024;2022-08-14T06:29:22;21.33;;;12.18;;
31402;SDS011;18039;52.188;21.024;2022-08-14T06:31:51;17.33;;;12.68;;
31402;SDS011;18039;52.188;21.024;2022-08-14T06:34:26;20.65;;;12.73;;
31402;SDS011;18039;52.188;21.024;2022-08-14T06:37:13;19.75;;;12.40;;
31402;SDS011;18039;52.188;21.024;2022-08-14T06:39:42;19.83;;;12.05;;
31402;SDS011;18039;52.188;21.024;2022-08-14T06:42:10;19.38;;;12.50;;
31402;SDS011;18039;52.188;21.024;2022-08-14T06:44:57;16.30;;;11.85;;
31402;SDS011;18039;52.188;21.024;2022-08-14T06:47:28;22.65;;;12.82;;
31402;SDS011;18039;52.188;21.024;2022-08-14T06:49:55;20.33;;;12.20;;
31402;SDS011;18039;52.188;21.024;2022-08-14T06:52:23;19.15;;;12.55;;
31402;SDS011;18039;52.188;21.024;2022-08-14T06:54:50;20.13;;;11.80;;
31402;SDS011;18039;52.188;21.024;2022-08-14T06:57:18;20.52;;;12.15;;
31402;SDS011;18039;52.188;21.024;2022-08-14T06:59:47;19.25;;;11.98;;
31402;SDS011;18039;52.188;21.024;2022-08-14T07:02:16;20.85;;;13.00;;
31402;SDS011;18039;52.188;21.024;2022-08-14T07:05:09;19.15;;;12.10;;
31402;SDS011;18039;52.188;21.024;2022-08-14T07:07:55;19.35;;;12.30;;
31402;SDS011;18039;52.188;21.024;2022-08-14T07:10:24;17.52;;;11.52;;
31402;SDS011;18039;52.188;21.024;2022-08-14T07:12:51;19.45;;;12.25;;
31402;SDS011;18039;52.188;21.024;2022-08-14T07:15:30;19.35;;;12.10;;
31402;SDS011;18039;52.188;21.024;2022-08-14T07:18:05;20.55;;;12.30;;
31402;SDS011;18039;52.188;21.024;2022-08-14T07:20:35;18.30;;;12.25;;
31402;SDS011;18039;52.188;21.024;2022-08-14T07:23:03;18.45;;;11.48;;
31402;SDS011;18039;52.188;21.024;2022-08-14T07:25:45;15.55;;;11.02;;
31402;SDS011;18039;52.188;21.024;2022-08-14T07:28:16;16.52;;;10.88;;
31402;SDS011;18039;52.188;21.024;2022-08-14T07:30:47;13.55;;;10.23;;
31402;SDS011;18039;52.188;21.024;2022-08-14T07:33:17;15.93;;;10.70;;
31402;SDS011;18039;52.188;21.024;2022-08-14T07:35:55;16.70;;;10.35;;
31402;SDS011;18039;52.188;21.024;2022-08-14T07:38:24;15.40;;;10.63;;
31402;SDS011;18039;52.188;21.024;2022-08-14T07:41:04;16.15;;;10.73;;
31402;SDS011;18039;52.188;21.024;2022-08-14T07:43:38;19.00;;;11.05;;
31402;SDS011;18039;52.188;21.024;2022-08-14T07:46:06;16.40;;;10.25;;
31402;SDS011;18039;52.188;21.024;2022-08-14T07:48:37;19.52;;;10.23;;
31402;SDS011;18039;52.188;21.024;2022-08-14T07:51:06;16.95;;;10.70;;
31402;SDS011;18039;52.188;21.024;2022-08-14T07:53:37;15.05;;;10.38;;
31402;SDS011;18039;52.188;21.024;2022-08-14T07:56:06;16.17;;;9.52;;
31402;SDS011;18039;52.188;21.024;2022-08-14T07:58:56;16.95;;;10.73;;
31402;SDS011;18039;52.188;21.024;2022-08-14T08:01:24;18.67;;;10.38;;
31402;SDS011;18039;52.188;21.024;2022-08-14T08:03:57;14.55;;;9.80;;
31402;SDS011;18039;52.188;21.024;2022-08-14T08:06:28;15.00;;;10.52;;
31402;SDS011;18039;52.188;21.024;2022-08-14T08:08:56;17.00;;;10.85;;
31402;SDS011;18039;52.188;21.024;2022-08-14T08:11:32;13.35;;;10.55;;
31402;SDS011;18039;52.188;21.024;2022-08-14T08:14:04;16.17;;;10.57;;
31402;SDS011;18039;52.188;21.024;2022-08-14T08:16:46;16.45;;;10.88;;
31402;SDS011;18039;52.188;21.024;2022-08-14T08:19:17;16.67;;;11.80;;
31402;SDS011;18039;52.188;21.024;2022-08-14T08:21:45;16.95;;;11.45;;
31402;SDS011;18039;52.188;21.024;2022-08-14T08:24:13;18.05;;;10.75;;
31402;SDS011;18039;52.188;21.024;2022-08-14T08:26:46;14.30;;;10.63;;
31402;SDS011;18039;52.188;21.024;2022-08-14T08:29:19;21.77;;;12.13;;
31402;SDS011;18039;52.188;21.024;2022-08-14T08:31:54;17.60;;;11.05;;
31402;SDS011;18039;52.188;21.024;2022-08-14T08:34:21;17.40;;;10.98;;
31402;SDS011;18039;52.188;21.024;2022-08-14T08:36:49;20.27;;;11.10;;
31402;SDS011;18039;52.188;21.024;2022-08-14T08:39:18;17.95;;;11.02;;
31402;SDS011;18039;52.188;21.024;2022-08-14T08:41:48;17.27;;;10.63;;
31402;SDS011;18039;52.188;21.024;2022-08-14T08:44:20;15.63;;;10.90;;
31402;SDS011;18039;52.188;21.024;2022-08-14T08:47:02;17.20;;;11.23;;
31402;SDS011;18039;52.188;21.024;2022-08-14T08:49:34;18.45;;;11.95;;
31402;SDS011;18039;52.188;21.024;2022-08-14T08:52:14;17.20;;;10.73;;
31402;SDS011;18039;52.188;21.024;2022-08-14T08:54:57;18.33;;;11.35;;
31402;SDS011;18039;52.188;21.024;2022-08-14T08:57:26;15.57;;;10.63;;
31402;SDS011;18039;52.188;21.024;2022-08-14T08:59:53;16.92;;;10.82;;
31402;SDS011;18039;52.188;21.024;2022-08-14T09:02:24;14.25;;;10.43;;
31402;SDS011;18039;52.188;21.024;2022-08-14T09:05:00;17.77;;;10.32;;
31402;SDS011;18039;52.188;21.024;2022-08-14T09:07:28;18.90;;;9.88;;
31402;SDS011;18039;52.188;21.024;2022-08-14T09:09:56;19.02;;;11.07;;
31402;SDS011;18039;52.188;21.024;2022-08-14T09:12:26;13.20;;;10.10;;
31402;SDS011;18039;52.188;21.024;2022-08-14T09:14:57;14.68;;;10.70;;
31402;SDS011;18039;52.188;21.024;2022-08-14T09:17:37;15.38;;;10.15;;
31402;SDS011;18039;52.188;21.024;2022-08-14T09:20:08;17.13;;;9.80;;
31402;SDS011;18039;52.188;21.024;2022-08-14T09:22:40;17.52;;;11.00;;
31402;SDS011;18039;52.188;21.024;2022-08-14T09:25:15;13.52;;;10.75;;
31402;SDS011;18039;52.188;21.024;2022-08-14T09:27:55;14.70;;;10.20;;
31402;SDS011;18039;52.188;21.024;2022-08-14T09:30:22;15.27;;;10.63;;
31402;SDS011;18039;52.188;21.024;2022-08-14T09:38:40;14.98;;;10.63;;
31402;SDS011;18039;52.188;21.024;2022-08-14T09:47:20;14.18;;;11.23;;
31402;SDS011;18039;52.188;21.024;2022-08-14T09:49:47;14.30;;;10.63;;
31402;SDS011;18039;52.188;21.024;2022-08-14T09:52:19;14.45;;;9.82;;
31402;SDS011;18039;52.188;21.024;2022-08-14T09:54:59;15.27;;;10.85;;
31402;SDS011;18039;52.188;21.024;2022-08-14T09:57:29;16.48;;;11.20;;
31402;SDS011;18039;52.188;21.024;2022-08-14T09:59:57;15.82;;;10.77;;
31402;SDS011;18039;52.188;21.024;2022-08-14T10:02:56;15.65;;;10.88;;
31402;SDS011;18039;52.188;21.024;2022-08-14T10:05:32;18.17;;;10.98;;
31402;SDS011;18039;52.188;21.024;2022-08-14T10:08:15;16.08;;;11.10;;
31402;SDS011;18039;52.188;21.024;2022-08-14T10:10:52;14.27;;;11.13;;
31402;SDS011;18039;52.188;21.024;2022-08-14T10:13:28;16.08;;;11.00;;
31402;SDS011;18039;52.188;21.024;2022-08-14T10:16:15;20.02;;;10.90;;
31402;SDS011;18039;52.188;21.024;2022-08-14T10:19:05;16.48;;;10.98;;
31402;SDS011;18039;52.188;21.024;2022-08-14T10:21:38;16.20;;;11.38;;
31402;SDS011;18039;52.188;21.024;2022-08-14T10:24:38;16.65;;;12.05;;
31402;SDS011;18039;52.188;21.024;2022-08-14T10:27:14;20.98;;;11.68;;
31402;SDS011;18039;52.188;21.024;2022-08-14T10:29:50;18.52;;;11.65;;
31402;SDS011;18039;52.188;21.024;2022-08-14T10:32:27;15.25;;;11.88;;
31402;SDS011;18039;52.188;21.024;2022-08-14T10:35:08;15.15;;;11.77;;
31402;SDS011;18039;52.188;21.024;2022-08-14T10:37:44;18.15;;;11.43;;
31402;SDS011;18039;52.188;21.024;2022-08-14T10:40:15;17.10;;;13.02;;
31402;SDS011;18039;52.188;21.024;2022-08-14T10:43:21;24.02;;;11.70;;
31402;SDS011;18039;52.188;21.024;2022-08-14T10:45:53;18.45;;;11.75;;
31402;SDS011;18039;52.188;21.024;2022-08-14T10:48:53;20.85;;;11.55;;
31402;SDS011;18039;52.188;21.024;2022-08-14T10:51:26;22.02;;;11.38;;
31402;SDS011;18039;52.188;21.024;2022-08-14T10:54:03;16.92;;;11.43;;
31402;SDS011;18039;52.188;21.024;2022-08-14T10:56:53;17.77;;;12.15;;
31402;SDS011;18039;52.188;21.024;2022-08-14T10:59:21;17.23;;;12.30;;
31402;SDS011;18039;52.188;21.024;2022-08-14T11:02:01;19.50;;;11.63;;
31402;SDS011;18039;52.188;21.024;2022-08-14T11:04:28;16.20;;;11.63;;
31402;SDS011;18039;52.188;21.024;2022-08-14T11:06:56;16.27;;;11.35;;
31402;SDS011;18039;52.188;21.024;2022-08-14T11:09:24;14.57;;;11.20;;
31402;SDS011;18039;52.188;21.024;2022-08-14T11:11:58;17.92;;;11.27;;
31402;SDS011;18039;52.188;21.024;2022-08-14T11:14:50;18.27;;;11.18;;
31402;SDS011;18039;52.188;21.024;2022-08-14T11:17:26;19.58;;;12.55;;
31402;SDS011;18039;52.188;21.024;2022-08-14T11:19:59;17.98;;;12.60;;
31402;SDS011;18039;52.188;21.024;2022-08-14T11:22:28;23.42;;;11.98;;
31402;SDS011;18039;52.188;21.024;2022-08-14T11:25:18;18.02;;;11.48;;
31402;SDS011;18039;52.188;21.024;2022-08-14T11:27:47;17.30;;;11.75;;
31402;SDS011;18039;52.188;21.024;2022-08-14T11:30:17;17.45;;;12.18;;
31402;SDS011;18039;52.188;21.024;2022-08-14T11:33:07;14.93;;;11.32;;
31402;SDS011;18039;52.188;21.024;2022-08-14T11:35:36;15.55;;;11.90;;
31402;SDS011;18039;52.188;21.024;2022-08-14T11:38:14;16.70;;;11.65;;
31402;SDS011;18039;52.188;21.024;2022-08-14T11:40:44;17.33;;;11.85;;
31402;SDS011;18039;52.188;21.024;2022-08-14T11:43:13;18.05;;;12.48;;
31402;SDS011;18039;52.188;21.024;2022-08-14T11:45:44;18.00;;;11.57;;
31402;SDS011;18039;52.188;21.024;2022-08-14T11:48:20;20.85;;;12.18;;
31402;SDS011;18039;52.188;21.024;2022-08-14T11:51:17;15.88;;;11.82;;
31402;SDS011;18039;52.188;21.024;2022-08-14T11:54:05;17.52;;;11.23;;
31402;SDS011;18039;52.188;21.024;2022-08-14T11:56:38;17.85;;;12.55;;
31402;SDS011;18039;52.188;21.024;2022-08-14T11:59:07;19.10;;;12.07;;
31402;SDS011;18039;52.188;21.024;2022-08-14T12:01:40;22.20;;;12.50;;
31402;SDS011;18039;52.188;21.024;2022-08-14T12:04:12;16.45;;;11.23;;
31402;SDS011;18039;52.188;21.024;2022-08-14T12:06:59;17.27;;;12.55;;
31402;SDS011;18039;52.188;21.024;2022-08-14T12:09:33;15.52;;;11.40;;
31402;SDS011;18039;52.188;21.024;2022-08-14T12:15:03;21.10;;;13.40;;
31402;SDS011;18039;52.188;21.024;2022-08-14T12:17:42;17.00;;;11.43;;
31402;SDS011;18039;52.188;21.024;2022-08-14T12:20:14;16.52;;;11.60;;
31402;SDS011;18039;52.188;21.024;2022-08-14T12:25:22;18.13;;;11.90;;
31402;SDS011;18039;52.188;21.024;2022-08-14T12:27:51;15.05;;;11.73;;
31402;SDS011;18039;52.188;21.024;2022-08-14T12:30:28;17.02;;;10.88;;
31402;SDS011;18039;52.188;21.024;2022-08-14T12:33:27;16.90;;;10.90;;
31402;SDS011;18039;52.188;21.024;2022-08-14T12:36:03;15.15;;;11.00;;
31402;SDS011;18039;52.188;21.024;2022-08-14T12:38:38;18.25;;;11.38;;
31402;SDS011;18039;52.188;21.024;2022-08-14T12:41:11;17.10;;;11.30;;
31402;SDS011;18039;52.188;21.024;2022-08-14T12:43:51;15.73;;;10.38;;
31402;SDS011;18039;52.188;21.024;2022-08-14T12:49:11;14.55;;;10.52;;
31402;SDS011;18039;52.188;21.024;2022-08-14T12:51:42;19.48;;;11.40;;
31402;SDS011;18039;52.188;21.024;2022-08-14T12:54:20;20.55;;;11.80;;
31402;SDS011;18039;52.188;21.024;2022-08-14T12:57:08;19.80;;;10.88;;
31402;SDS011;18039;52.188;21.024;2022-08-14T12:59:46;16.92;;;10.82;;
31402;SDS011;18039;52.188;21.024;2022-08-14T13:02:23;19.40;;;12.02;;
31402;SDS011;18039;52.188;21.024;2022-08-14T13:04:53;15.50;;;10.95;;
31402;SDS011;18039;52.188;21.024;2022-08-14T13:07:25;16.08;;;12.10;;
31402;SDS011;18039;52.188;21.024;2022-08-14T13:09:58;14.85;;;11.18;;
31402;SDS011;18039;52.188;21.024;2022-08-14T13:12:47;16.98;;;11.63;;
31402;SDS011;18039;52.188;21.024;2022-08-14T13:15:35;20.25;;;11.48;;
31402;SDS011;18039;52.188;21.024;2022-08-14T13:18:06;29.70;;;12.48;;
31402;SDS011;18039;52.188;21.024;2022-08-14T13:20:36;15.70;;;10.75;;
31402;SDS011;18039;52.188;21.024;2022-08-14T13:23:03;18.40;;;11.07;;
31402;SDS011;18039;52.188;21.024;2022-08-14T13:25:32;16.17;;;11.60;;
31402;SDS011;18039;52.188;21.024;2022-08-14T13:28:02;16.63;;;11.07;;
31402;SDS011;18039;52.188;21.024;2022-08-14T13:30:37;23.15;;;11.10;;
31402;SDS011;18039;52.188;21.024;2022-08-14T13:33:10;16.30;;;11.40;;
31402;SDS011;18039;52.188;21.024;2022-08-14T13:35:43;17.70;;;11.32;;
31402;SDS011;18039;52.188;21.024;2022-08-14T13:38:16;15.10;;;10.57;;
31402;SDS011;18039;52.188;21.024;2022-08-14T13:40:47;14.27;;;10.48;;
31402;SDS011;18039;52.188;21.024;2022-08-14T13:43:22;20.40;;;11.43;;
31402;SDS011;18039;52.188;21.024;2022-08-14T13:45:57;15.57;;;10.85;;
31402;SDS011;18039;52.188;21.024;2022-08-14T13:48:26;16.98;;;10.05;;
31402;SDS011;18039;52.188;21.024;2022-08-14T13:51:03;19.30;;;11.80;;
31402;SDS011;18039;52.188;21.024;2022-08-14T13:53:38;19.23;;;11.20;;
31402;SDS011;18039;52.188;21.024;2022-08-14T13:56:31;15.40;;;11.52;;
31402;SDS011;18039;52.188;21.024;2022-08-14T13:59:04;14.27;;;10.68;;
31402;SDS011;18039;52.188;21.024;2022-08-14T14:01:32;16.35;;;10.60;;
31402;SDS011;18039;52.188;21.024;2022-08-14T14:04:13;13.38;;;10.20;;
31402;SDS011;18039;52.188;21.024;2022-08-14T14:06:46;17.95;;;10.95;;
31402;SDS011;18039;52.188;21.024;2022-08-14T14:09:15;17.50;;;10.95;;
31402;SDS011;18039;52.188;21.024;2022-08-14T14:11:48;17.77;;;11.35;;
31402;SDS011;18039;52.188;21.024;2022-08-14T14:14:19;16.25;;;11.30;;
31402;SDS011;18039;52.188;21.024;2022-08-14T14:17:10;16.90;;;10.25;;
31402;SDS011;18039;52.188;21.024;2022-08-14T14:19:40;15.23;;;11.02;;
31402;SDS011;18039;52.188;21.024;2022-08-14T14:22:13;15.55;;;10.82;;
31402;SDS011;18039;52.188;21.024;2022-08-14T14:25:05;18.85;;;10.70;;
31402;SDS011;18039;52.188;21.024;2022-08-14T14:27:32;17.80;;;11.43;;
31402;SDS011;18039;52.188;21.024;2022-08-14T14:30:07;16.95;;;10.80;;
31402;SDS011;18039;52.188;21.024;2022-08-14T14:32:57;14.23;;;10.15;;
31402;SDS011;18039;52.188;21.024;2022-08-14T14:35:34;17.48;;;10.50;;
31402;SDS011;18039;52.188;21.024;2022-08-14T14:38:05;17.38;;;11.15;;
31402;SDS011;18039;52.188;21.024;2022-08-14T14:40:32;15.95;;;11.50;;
31402;SDS011;18039;52.188;21.024;2022-08-14T14:43:20;16.25;;;10.95;;
31402;SDS011;18039;52.188;21.024;2022-08-14T14:45:50;16.63;;;10.65;;
31402;SDS011;18039;52.188;21.024;2022-08-14T14:48:20;15.90;;;10.82;;
31402;SDS011;18039;52.188;21.024;2022-08-14T14:50:54;18.48;;;11.35;;
31402;SDS011;18039;52.188;21.024;2022-08-14T14:53:27;15.55;;;10.85;;
31402;SDS011;18039;52.188;21.024;2022-08-14T14:56:05;15.60;;;10.70;;
31402;SDS011;18039;52.188;21.024;2022-08-14T14:58:55;16.95;;;10.45;;
31402;SDS011;18039;52.188;21.024;2022-08-14T15:01:24;18.15;;;10.70;;
31402;SDS011;18039;52.188;21.024;2022-08-14T15:03:53;17.52;;;10.35;;
31402;SDS011;18039;52.188;21.024;2022-08-14T15:06:24;17.40;;;10.20;;
31402;SDS011;18039;52.188;21.024;2022-08-14T15:08:56;15.63;;;10.60;;
31402;SDS011;18039;52.188;21.024;2022-08-14T15:11:25;21.73;;;10.68;;
31402;SDS011;18039;52.188;21.024;2022-08-14T15:13:56;16.92;;;10.73;;
31402;SDS011;18039;52.188;21.024;2022-08-14T15:16:26;19.40;;;10.02;;
31402;SDS011;18039;52.188;21.024;2022-08-14T15:18:53;14.82;;;10.35;;
31402;SDS011;18039;52.188;21.024;2022-08-14T15:21:21;14.80;;;10.45;;
31402;SDS011;18039;52.188;21.024;2022-08-14T15:23:48;14.68;;;9.32;;
31402;SDS011;18039;52.188;21.024;2022-08-14T15:26:17;14.43;;;9.38;;
31402;SDS011;18039;52.188;21.024;2022-08-14T15:29:04;17.90;;;9.03;;
31402;SDS011;18039;52.188;21.024;2022-08-14T15:31:33;15.18;;;8.27;;